Thunder radar more information blitzortung!


Radar de pluja more information rain snow radar


Visita la nostra xarxa de llocs de meteo:

Template documentation
and downloads

And another site



No particular awareness of the weather is required.    There are no Weather-warnings

Pagina Historial Weather Underground text

Diari Resum May 18, 2016 Unitats:  Mètric    Imperial   Tant
« Previous Dia
SegĂźent Dia »
Diari Setmana Mensual Anual Personalitzada
  Maxima: Minima: Media:
Temperatura: 23.7 °C 10.3 °C 19.1 °C
Punt de rosada: 13.7 °C 7.4 °C 12.1 °C
Humitat: 84 % 51 % 65 %
Wind Speed: 27.8 km/h 0.0 km/h 10.1 km/h
RĂ fegues de vent: 27.8 km/h - -
Vent:- - SSW
Pression baro: 1018.8 hPa 1012.8 hPa -
Precipitacions: 2.3 mm    
Historical Graphs
 
 
Dades de taula per May 18, 2016
Temps Temperatura Punt de rosada Pression baro Vent Wind Speed RĂ fegues de vent Humitat Rainfall Rate (Hourly)
00:04 13.9 °C 9.3 °C 1018.8 hPa Calm     74 % 0.0 mm
00:05 11.3 °C 8.0 °C 1016.8 hPa SW 3.2 km/h 3.2 km/h 80 % 0.0 mm
00:09 13.9 °C 9.3 °C 1018.8 hPa Calm     74 % 0.0 mm
00:14 13.9 °C 9.6 °C 1018.8 hPa Calm     75 % 0.0 mm
00:15 11.2 °C 7.9 °C 1016.8 hPa SW 1.6 km/h 3.2 km/h 80 % 0.0 mm
00:25 11.4 °C 8.1 °C 1015.8 hPa WSW 1.6 km/h 3.2 km/h 80 % 0.0 mm
00:35 11.2 °C 8.1 °C 1015.8 hPa Calm   3.2 km/h 81 % 0.0 mm
00:45 11.1 °C 8.2 °C 1016.8 hPa Calm     82 % 0.0 mm
00:55 11.1 °C 8.2 °C 1015.8 hPa Calm     82 % 0.0 mm
01:05 11.2 °C 8.4 °C 1015.8 hPa NW 1.6 km/h 1.6 km/h 83 % 0.0 mm
01:15 10.8 °C 7.7 °C 1015.8 hPa NNW 3.2 km/h 3.2 km/h 81 % 0.0 mm
01:25 10.6 °C 7.5 °C 1015.8 hPa WSW 3.2 km/h 4.8 km/h 81 % 0.0 mm
01:35 10.4 °C 7.4 °C 1015.8 hPa SW 3.2 km/h 4.8 km/h 82 % 0.0 mm
01:45 10.3 °C 7.6 °C 1015.8 hPa SW 3.2 km/h 3.2 km/h 83 % 0.0 mm
01:55 10.4 °C 7.6 °C 1016.8 hPa SW 1.6 km/h 3.2 km/h 83 % 0.0 mm
02:05 10.4 °C 7.6 °C 1016.8 hPa Calm     83 % 0.0 mm
02:15 10.5 °C 7.7 °C 1016.8 hPa Calm   3.2 km/h 83 % 0.0 mm
02:25 10.7 °C 8.1 °C 1016.8 hPa Calm     84 % 0.0 mm
02:35 10.9 °C 8.1 °C 1016.8 hPa Calm     83 % 0.0 mm
02:45 11.2 °C 8.4 °C 1016.8 hPa ENE 1.6 km/h 1.6 km/h 83 % 0.0 mm
02:55 11.8 °C 8.8 °C 1017.8 hPa Calm   3.2 km/h 82 % 0.0 mm
03:05 12.2 °C 9.1 °C 1017.8 hPa Calm   3.2 km/h 81 % 0.0 mm
03:15 12.9 °C 9.6 °C 1017.8 hPa Calm     80 % 0.0 mm
03:25 13.5 °C 9.9 °C 1016.8 hPa Calm   1.6 km/h 79 % 0.0 mm
03:35 13.9 °C 10.1 °C 1016.8 hPa ENE 1.6 km/h 3.2 km/h 78 % 0.0 mm
03:45 14.2 °C 10.4 °C 1017.8 hPa South 1.6 km/h   78 % 0.0 mm
03:55 14.2 °C 10.2 °C 1017.8 hPa Calm   1.6 km/h 77 % 0.0 mm
04:05 13.9 °C 9.9 °C 1017.8 hPa ENE 1.6 km/h 3.2 km/h 77 % 0.0 mm
04:15 14.5 °C 10.3 °C 1017.8 hPa NE 1.6 km/h 3.2 km/h 76 % 0.0 mm
04:25 15.3 °C 11.1 °C 1017.8 hPa NE 1.6 km/h 3.2 km/h 76 % 0.0 mm
04:35 16.1 °C 11.7 °C 1017.8 hPa ENE 1.6 km/h 3.2 km/h 75 % 0.0 mm
04:45 16.1 °C 11.4 °C 1017.8 hPa SSW 3.2 km/h 6.4 km/h 74 % 0.0 mm
04:55 16.8 °C 11.9 °C 1017.8 hPa SW 3.2 km/h 4.8 km/h 73 % 0.0 mm
05:05 17.6 °C 12.1 °C 1017.8 hPa SW 4.8 km/h 4.8 km/h 70 % 0.0 mm
05:15 17.8 °C 12.3 °C 1017.8 hPa SSW 1.6 km/h 8.0 km/h 70 % 0.0 mm
05:35 18.2 °C 12.2 °C 1017.8 hPa WSW 3.2 km/h 8.0 km/h 68 % 0.0 mm
05:45 19.1 °C 12.8 °C 1016.8 hPa WSW 3.2 km/h 4.8 km/h 67 % 0.0 mm
05:55 19.8 °C 13.3 °C 1016.8 hPa WSW 1.6 km/h 6.4 km/h 66 % 0.0 mm
11:01 20.0 °C 12.7 °C 1016.8 hPa SSW 9.3 km/h 9.3 km/h 63 % 0.0 mm
11:06 20.1 °C 12.8 °C 1015.8 hPa WSW 7.4 km/h 7.4 km/h 63 % 0.0 mm
11:11 20.3 °C 13.0 °C 1015.8 hPa WSW 7.4 km/h 7.4 km/h 63 % 0.0 mm
11:16 20.4 °C 12.6 °C 1015.8 hPa SSW 11.1 km/h 11.1 km/h 61 % 0.0 mm
11:21 20.2 °C 12.4 °C 1016.8 hPa SW 11.1 km/h 11.1 km/h 61 % 0.0 mm
11:26 20.3 °C 12.3 °C 1016.8 hPa SW 11.4 km/h 11.4 km/h 60 % 0.0 mm
11:31 20.4 °C 12.4 °C 1016.8 hPa SSW 10.0 km/h 10.0 km/h 60 % 0.0 mm
11:36 20.6 °C 12.3 °C 1016.8 hPa WSW 14.8 km/h 14.8 km/h 59 % 0.0 mm
11:41 21.0 °C 12.9 °C 1016.8 hPa SW 7.4 km/h 7.4 km/h 60 % 0.0 mm
11:46 20.7 °C 12.4 °C 1016.8 hPa SSW 7.4 km/h 7.4 km/h 59 % 0.0 mm
11:51 21.2 °C 12.6 °C 1015.8 hPa SW 7.4 km/h 7.4 km/h 58 % 0.0 mm
11:56 21.2 °C 12.6 °C 1015.8 hPa SW 11.1 km/h 11.1 km/h 58 % 0.0 mm
12:01 21.3 °C 12.4 °C 1015.8 hPa SSW 11.1 km/h 11.1 km/h 57 % 0.0 mm
12:06 21.6 °C 12.7 °C 1015.8 hPa WSW 10.3 km/h 10.3 km/h 57 % 0.0 mm
12:11 21.7 °C 12.8 °C 1015.8 hPa NW 3.9 km/h 4.7 km/h 57 % 0.0 mm
12:16 21.6 °C 12.4 °C 1015.8 hPa SW 14.8 km/h 14.8 km/h 56 % 0.0 mm
12:21 21.7 °C 12.3 °C 1015.8 hPa SW 11.1 km/h 11.1 km/h 55 % 0.0 mm
12:26 21.9 °C 12.7 °C 1015.8 hPa WSW 10.0 km/h 10.8 km/h 56 % 0.0 mm
12:31 21.8 °C 12.3 °C 1015.8 hPa SSW 13.0 km/h 13.0 km/h 55 % 0.0 mm
12:36 21.8 °C 12.6 °C 1015.8 hPa SW 13.0 km/h 13.0 km/h 56 % 0.0 mm
12:41 22.4 °C 12.9 °C 1015.8 hPa SSW 13.0 km/h 13.0 km/h 55 % 0.0 mm
12:46 22.4 °C 12.9 °C 1015.8 hPa SW 13.7 km/h 13.7 km/h 55 % 0.0 mm
12:51 22.2 °C 12.4 °C 1015.8 hPa SW 16.7 km/h 16.7 km/h 54 % 0.0 mm
12:56 22.3 °C 12.6 °C 1015.8 hPa SW 11.1 km/h 11.1 km/h 54 % 0.0 mm
13:01 22.4 °C 12.6 °C 1015.8 hPa WSW 7.9 km/h 7.9 km/h 54 % 0.0 mm
13:06 22.8 °C 13.3 °C 1015.8 hPa SSW 16.4 km/h 16.4 km/h 55 % 0.0 mm
13:11 22.6 °C 12.8 °C 1015.8 hPa SSW 16.7 km/h 16.7 km/h 54 % 0.0 mm
13:16 22.5 °C 12.4 °C 1015.8 hPa SSW 13.0 km/h 13.0 km/h 53 % 0.0 mm
13:21 22.1 °C 12.1 °C 1014.8 hPa SW 14.8 km/h 14.8 km/h 53 % 0.0 mm
13:31 22.7 °C 12.9 °C 1014.8 hPa SSW 14.8 km/h 14.8 km/h 54 % 0.0 mm
13:36 23.0 °C 12.6 °C 1015.8 hPa SW 11.1 km/h 11.1 km/h 52 % 0.0 mm
13:41 23.3 °C 12.6 °C 1015.8 hPa SSW 14.8 km/h 14.8 km/h 51 % 0.0 mm
13:46 23.3 °C 12.9 °C 1015.8 hPa SSW 14.8 km/h 14.8 km/h 52 % 0.0 mm
13:51 23.0 °C 12.3 °C 1014.8 hPa SSW 14.8 km/h 14.8 km/h 51 % 0.0 mm
13:56 22.9 °C 12.8 °C 1014.8 hPa SSW 18.5 km/h 18.5 km/h 53 % 0.0 mm
14:01 23.3 °C 12.9 °C 1014.8 hPa WSW 13.0 km/h 13.0 km/h 52 % 0.0 mm
14:06 23.1 °C 12.7 °C 1014.8 hPa SSW 14.8 km/h 14.8 km/h 52 % 0.0 mm
14:11 23.4 °C 13.3 °C 1014.8 hPa WSW 13.0 km/h 13.0 km/h 53 % 0.0 mm
14:21 23.3 °C 13.2 °C 1014.8 hPa SW 16.7 km/h 16.7 km/h 53 % 0.0 mm
14:26 23.7 °C 13.6 °C 1014.8 hPa SW 13.0 km/h 13.0 km/h 53 % 0.0 mm
14:31 23.0 °C 12.9 °C 1014.8 hPa SSW 18.5 km/h 18.5 km/h 53 % 0.0 mm
14:41 23.2 °C 13.4 °C 1014.8 hPa SSW 9.3 km/h 9.3 km/h 54 % 0.0 mm
14:46 23.3 °C 13.2 °C 1014.8 hPa SW 14.8 km/h 14.8 km/h 53 % 0.0 mm
14:51 23.3 °C 13.4 °C 1014.8 hPa SW 14.8 km/h 14.8 km/h 54 % 0.0 mm
14:56 23.1 °C 13.3 °C 1014.8 hPa SSW 13.0 km/h 13.0 km/h 54 % 0.0 mm
15:01 23.3 °C 13.4 °C 1014.8 hPa SW 14.8 km/h 14.8 km/h 54 % 0.0 mm
15:06 23.6 °C 13.7 °C 1013.8 hPa SSW 7.4 km/h 7.9 km/h 54 % 0.0 mm
15:11 23.0 °C 13.2 °C 1013.8 hPa SW 16.7 km/h 16.7 km/h 54 % 0.0 mm
15:16 23.0 °C 13.2 °C 1013.8 hPa SSW 11.1 km/h 11.1 km/h 54 % 0.0 mm
15:21 22.9 °C 13.1 °C 1013.8 hPa NE 18.5 km/h 18.5 km/h 54 % 0.0 mm
15:26 22.6 °C 12.8 °C 1013.8 hPa WSW 24.1 km/h 24.1 km/h 54 % 0.0 mm
15:36 23.0 °C 12.9 °C 1013.8 hPa SW 13.0 km/h 13.0 km/h 53 % 0.0 mm
15:41 22.7 °C 12.9 °C 1013.8 hPa SSW 15.1 km/h 15.1 km/h 54 % 0.0 mm
15:46 22.8 °C 13.0 °C 1013.8 hPa WSW 13.0 km/h 13.0 km/h 54 % 0.0 mm
15:51 23.1 °C 13.3 °C 1012.8 hPa SSW 13.0 km/h 13.0 km/h 54 % 0.0 mm
15:56 23.5 °C 13.4 °C 1012.8 hPa SW 16.1 km/h 16.1 km/h 53 % 0.0 mm
16:01 22.8 °C 13.0 °C 1012.8 hPa SW 14.8 km/h 14.8 km/h 54 % 0.0 mm
16:06 22.8 °C 13.0 °C 1013.8 hPa East 16.7 km/h 16.7 km/h 54 % 0.0 mm
16:11 22.8 °C 12.7 °C 1013.8 hPa West 16.7 km/h 16.7 km/h 53 % 0.0 mm
16:16 22.7 °C 12.6 °C 1013.8 hPa WSW 16.7 km/h 16.7 km/h 53 % 0.0 mm
16:17 22.7 °C 12.6 °C 1013.8 hPa WSW 16.7 km/h 16.7 km/h 53 % 0.0 mm
16:22 22.5 °C 12.7 °C 1013.8 hPa WSW 22.2 km/h 22.2 km/h 54 % 0.0 mm
16:27 23.0 °C 12.9 °C 1013.8 hPa SW 18.5 km/h 18.5 km/h 53 % 0.0 mm
16:32 23.2 °C 13.1 °C 1013.8 hPa South 14.8 km/h 14.8 km/h 53 % 0.0 mm
16:37 23.5 °C 13.4 °C 1013.8 hPa West 11.1 km/h 11.1 km/h 53 % 0.0 mm
16:42 23.0 °C 12.9 °C 1013.8 hPa SSW 9.3 km/h 9.3 km/h 53 % 0.0 mm
16:47 23.3 °C 13.2 °C 1013.8 hPa WSW 16.7 km/h 16.7 km/h 53 % 0.0 mm
16:52 22.6 °C 12.8 °C 1013.8 hPa SSW 16.7 km/h 16.7 km/h 54 % 0.0 mm
16:57 22.2 °C 12.4 °C 1013.8 hPa WSW 18.5 km/h 18.5 km/h 54 % 0.0 mm
17:02 21.9 °C 12.7 °C 1013.8 hPa West 13.0 km/h 13.0 km/h 56 % 0.0 mm
17:07 21.5 °C 12.3 °C 1013.8 hPa SW 16.7 km/h 16.7 km/h 56 % 0.0 mm
17:12 21.4 °C 12.5 °C 1013.8 hPa WSW 14.8 km/h 14.8 km/h 57 % 0.0 mm
17:17 21.2 °C 12.3 °C 1013.8 hPa SW 16.7 km/h 16.7 km/h 57 % 0.0 mm
17:22 21.3 °C 12.4 °C 1013.8 hPa SW 13.0 km/h 13.0 km/h 57 % 0.0 mm
17:27 21.1 °C 12.5 °C 1013.8 hPa SW 16.7 km/h 16.7 km/h 58 % 0.0 mm
17:32 20.8 °C 12.5 °C 1013.8 hPa SSW 22.2 km/h 22.2 km/h 59 % 0.0 mm
17:37 20.2 °C 12.2 °C 1013.8 hPa West 18.5 km/h 18.5 km/h 60 % 0.0 mm
17:42 20.2 °C 12.4 °C 1013.8 hPa WSW 14.8 km/h 14.8 km/h 61 % 0.0 mm
17:47 20.2 °C 12.7 °C 1013.8 hPa SW 18.5 km/h 18.5 km/h 62 % 0.0 mm
17:52 20.4 °C 12.9 °C 1013.8 hPa SW 14.8 km/h 14.8 km/h 62 % 0.0 mm
17:57 20.9 °C 13.3 °C 1013.8 hPa WSW 19.0 km/h 19.0 km/h 62 % 0.0 mm
18:02 21.0 °C 13.2 °C 1013.8 hPa SW 14.8 km/h 14.8 km/h 61 % 0.0 mm
18:07 20.7 °C 13.2 °C 1013.8 hPa WSW 16.7 km/h 16.7 km/h 62 % 0.0 mm
18:12 20.9 °C 13.1 °C 1013.8 hPa SW 21.2 km/h 21.2 km/h 61 % 0.0 mm
18:17 20.6 °C 13.1 °C 1013.8 hPa WSW 16.7 km/h 16.7 km/h 62 % 0.0 mm
18:22 20.4 °C 12.9 °C 1013.8 hPa SW 25.9 km/h 25.9 km/h 62 % 0.0 mm
18:27 20.4 °C 12.9 °C 1013.8 hPa SSW 27.8 km/h 27.8 km/h 62 % 0.0 mm
18:32 20.3 °C 13.0 °C 1013.8 hPa WSW 18.5 km/h 18.5 km/h 63 % 0.0 mm
18:37 20.2 °C 12.9 °C 1012.8 hPa SW 22.2 km/h 22.2 km/h 63 % 0.0 mm
18:42 20.0 °C 12.7 °C 1012.8 hPa SW 20.4 km/h 20.4 km/h 63 % 0.0 mm
18:47 19.9 °C 13.1 °C 1012.8 hPa SW 20.4 km/h 20.4 km/h 65 % 0.0 mm
18:52 19.9 °C 13.1 °C 1012.8 hPa SW 24.1 km/h 24.1 km/h 65 % 0.0 mm
18:57 19.8 °C 13.1 °C 1012.8 hPa SSW 20.4 km/h 20.4 km/h 65 % 0.0 mm
19:02 19.7 °C 12.9 °C 1012.8 hPa SSW 18.5 km/h 18.5 km/h 65 % 0.0 mm
19:07 19.5 °C 13.0 °C 1012.8 hPa SSW 20.4 km/h 20.4 km/h 66 % 0.0 mm
19:12 19.4 °C 12.9 °C 1012.8 hPa SW 16.7 km/h 16.7 km/h 66 % 0.0 mm
19:17 19.3 °C 12.8 °C 1012.8 hPa SW 16.7 km/h 16.7 km/h 66 % 0.0 mm
19:22 19.4 °C 12.9 °C 1012.8 hPa WSW 13.0 km/h 13.0 km/h 66 % 0.0 mm
19:27 19.6 °C 13.1 °C 1012.8 hPa SSW 6.1 km/h 6.1 km/h 66 % 0.0 mm
19:32 19.6 °C 13.1 °C 1012.8 hPa SW 11.1 km/h 11.1 km/h 66 % 0.0 mm
19:37 19.6 °C 13.1 °C 1012.8 hPa SSW 9.3 km/h 9.3 km/h 66 % 0.0 mm
19:42 19.4 °C 12.9 °C 1012.8 hPa SW 12.6 km/h 12.6 km/h 66 % 0.0 mm
19:47 19.5 °C 13.0 °C 1012.8 hPa SW 7.4 km/h 7.4 km/h 66 % 0.0 mm
19:52 19.6 °C 13.1 °C 1013.8 hPa WSW 5.6 km/h 5.6 km/h 66 % 0.0 mm
19:57 19.6 °C 13.1 °C 1013.8 hPa SW 7.9 km/h 7.9 km/h 66 % 0.0 mm
20:02 19.5 °C 13.0 °C 1013.8 hPa SSW 11.1 km/h 11.1 km/h 66 % 0.0 mm
20:07 19.5 °C 13.0 °C 1013.8 hPa SSW 7.4 km/h 7.4 km/h 66 % 0.0 mm
20:12 19.4 °C 12.9 °C 1013.8 hPa WSW 9.3 km/h 9.3 km/h 66 % 0.0 mm
20:17 19.4 °C 12.9 °C 1013.8 hPa SW 5.6 km/h 5.6 km/h 66 % 0.0 mm
20:22 19.3 °C 13.0 °C 1013.8 hPa SSW 13.0 km/h 13.0 km/h 67 % 0.0 mm
20:27 19.3 °C 13.0 °C 1013.8 hPa WSW 1.9 km/h 1.9 km/h 67 % 0.0 mm
20:32 19.3 °C 12.8 °C 1013.8 hPa WSW 5.6 km/h 5.6 km/h 66 % 0.0 mm
20:42 19.1 °C 12.8 °C 1013.8 hPa SSW 7.4 km/h 7.4 km/h 67 % 0.0 mm
20:47 19.0 °C 12.7 °C 1013.8 hPa SW 3.7 km/h 3.7 km/h 67 % 0.0 mm
20:52 18.9 °C 12.9 °C 1013.8 hPa SW 3.7 km/h 4.2 km/h 68 % 0.0 mm
20:57 18.8 °C 12.8 °C 1013.8 hPa South 1.9 km/h   68 % 0.0 mm
21:02 18.8 °C 12.8 °C 1013.8 hPa ENE 9.0 km/h 9.5 km/h 68 % 0.0 mm
21:07 19.0 °C 12.5 °C 1013.8 hPa ESE 11.1 km/h 11.1 km/h 66 % 0.0 mm
21:12 19.0 °C 12.5 °C 1013.8 hPa NE 9.3 km/h 9.3 km/h 66 % 0.0 mm
21:17 18.9 °C 12.6 °C 1013.8 hPa East 7.4 km/h 7.4 km/h 67 % 0.0 mm
21:22 18.9 °C 12.6 °C 1014.8 hPa ENE 7.4 km/h 7.4 km/h 67 % 0.0 mm
21:27 18.8 °C 12.6 °C 1014.8 hPa ESE 9.3 km/h 9.3 km/h 67 % 0.0 mm
21:32 18.5 °C 12.5 °C 1014.8 hPa ESE 9.3 km/h 9.3 km/h 68 % 0.0 mm
21:37 18.3 °C 12.5 °C 1014.8 hPa ESE 7.6 km/h 7.6 km/h 69 % 0.0 mm
21:42 18.2 °C 12.4 °C 1014.8 hPa SE 3.7 km/h 3.7 km/h 69 % 0.0 mm
21:52 18.0 °C 12.4 °C 1014.8 hPa ESE 5.3 km/h 5.3 km/h 70 % 0.0 mm
21:57 17.9 °C 12.6 °C 1014.8 hPa ENE 9.3 km/h 9.3 km/h 71 % 0.0 mm
22:02 17.8 °C 12.4 °C 1014.8 hPa NNE 3.7 km/h 3.7 km/h 71 % 0.0 mm
22:07 17.8 °C 12.7 °C 1014.8 hPa ENE 3.7 km/h 4.7 km/h 72 % 0.0 mm
22:12 17.7 °C 12.6 °C 1014.8 hPa ESE 8.7 km/h 8.7 km/h 72 % 0.0 mm
22:17 17.7 °C 12.6 °C 1014.8 hPa East 6.1 km/h 6.1 km/h 72 % 0.0 mm
22:23 17.7 °C 12.6 °C 1015.8 hPa NE 7.4 km/h 7.4 km/h 72 % 0.0 mm
22:28 17.7 °C 12.6 °C 1015.8 hPa NE 5.8 km/h 5.8 km/h 72 % 0.0 mm
22:33 17.6 °C 12.7 °C 1015.8 hPa NNE 7.9 km/h 7.9 km/h 73 % 0.0 mm
22:38 17.6 °C 12.9 °C 1015.8 hPa East 7.4 km/h 7.4 km/h 74 % 0.0 mm
22:53 17.3 °C 12.4 °C 1015.8 hPa NE 12.2 km/h 12.2 km/h 73 % 0.0 mm
23:03 16.8 °C 12.6 °C 1015.8 hPa ESE 7.4 km/h 9.0 km/h 76 % 1.0 mm
23:08 16.3 °C 12.7 °C 1015.8 hPa ESE 7.4 km/h 9.0 km/h 79 % 2.3 mm
23:19 16.1 °C 12.7 °C 1015.8 hPa ENE 6.1 km/h 6.1 km/h 80 % 2.3 mm
23:24 16.0 °C 12.6 °C 1015.8 hPa ENE 6.1 km/h 6.1 km/h 80 % 2.3 mm
23:29 16.0 °C 12.7 °C 1015.8 hPa ENE 6.1 km/h 6.1 km/h 81 % 2.3 mm
23:39 16.0 °C 12.9 °C 1015.8 hPa ENE 6.1 km/h 6.1 km/h 82 % 2.3 mm
23:44 16.0 °C 12.9 °C 1015.8 hPa ENE 6.1 km/h 6.1 km/h 82 % 2.3 mm
23:54 16.0 °C 13.1 °C 1015.8 hPa ENE 6.1 km/h 6.1 km/h 83 % 2.3 mm
23:59 16.0 °C 12.9 °C 1015.8 hPa ENE 6.1 km/h 6.1 km/h 82 % 2.3 mm
Meteo Sesrovires
Elogis d' Weather Underground - 3.5 mb

Guio original per  Jim McMurry - jmcmurry@mwt.net Adaptat per a la plantilla per  Wim van der Kuil - Leuven-Template.eu

Trobareu la nostra informacio del temps tambe a:

Weather Underground

AWEKAS